Santa Cruz, Texas
Current Conditions -  °F | °C
As of 12:35 PM on Monday 22 Dec 2014 (Local Time) from KEBG Reporting Station
Overcast Overcast  
Wind Chill: 69°   Ceiling: 1100
Heat Index: 69°   Visibility: 10mi
Dew Point: 60°   Wind: 7mph
Humidity: 74%   Direction: 260°W
Pressure: 29.75"   Gusts: NA
Location:  26.5735°N, 98.695°W
Report Text: KEBG 221835Z AUTO 26006KT 10SM OVC011 20/16 A2975 RMK AO2 T02040156
Loading
Personal Weather Stations






























Interactive Weather Map New forecast layout! Learn more

10-Day Weather Forecast

Advertisements
Track Severe Weather on mobile